createdAt,value
2022-10-22T00:01:45.548Z,100805.59
2022-10-22T00:04:11.846Z,100807.34
2022-10-22T00:06:38.210Z,100817.88
2022-10-22T00:09:04.633Z,100814.38
2022-10-22T00:11:31.113Z,100824.91
2022-10-22T00:13:58.004Z,100816.97
2022-10-22T00:16:26.965Z,100814.31
2022-10-22T00:18:53.320Z,100815.19
2022-10-22T00:21:19.681Z,100818.75
2022-10-22T00:23:47.165Z,100826.69
2022-10-22T00:26:13.532Z,100816.09
2022-10-22T00:28:39.939Z,100822.31
2022-10-22T00:31:07.111Z,100832.94
2022-10-22T00:33:34.072Z,100825.97
2022-10-22T00:36:00.461Z,100822.44
2022-10-22T00:38:26.849Z,100832.13
2022-10-22T00:40:53.282Z,100823.31
2022-10-22T00:43:20.101Z,100828.63
2022-10-22T00:45:47.275Z,100816.28
2022-10-22T00:48:18.673Z,100821.56
2022-10-22T00:50:56.397Z,100823.38
2022-10-22T00:53:29.037Z,100825.16
2022-10-22T00:55:55.690Z,100821.69
2022-10-22T00:58:27.772Z,100833.19
2022-10-22T01:00:55.469Z,100825.22
2022-10-22T01:03:22.441Z,100830.53
2022-10-22T01:06:04.900Z,100827.00
2022-10-22T01:08:46.406Z,100834.09
2022-10-22T01:11:26.944Z,100838.50
2022-10-22T01:13:56.306Z,100841.19
2022-10-22T01:16:59.286Z,100837.66
2022-10-22T01:19:56.635Z,100845.59
2022-10-22T01:23:00.102Z,100841.19
2022-10-22T01:25:36.969Z,100842.09
2022-10-22T01:28:31.253Z,100847.38
2022-10-22T01:31:00.676Z,100836.81
2022-10-22T01:33:29.266Z,100835.88
2022-10-22T01:35:57.384Z,100836.75
2022-10-22T01:38:25.017Z,100819.16
2022-10-22T01:40:51.781Z,100835.81
2022-10-22T01:43:18.502Z,100841.13
2022-10-22T01:45:50.204Z,100837.56
2022-10-22T01:48:45.453Z,100831.41
2022-10-22T01:51:35.104Z,100834.91
2022-10-22T01:54:21.223Z,100836.69
2022-10-22T01:57:16.761Z,100836.69
2022-10-22T02:00:01.210Z,100825.28
2022-10-22T02:02:40.484Z,100823.59
2022-10-22T02:05:06.891Z,100822.72
2022-10-22T02:07:41.690Z,100817.44
2022-10-22T02:10:10.548Z,100817.47
2022-10-22T02:12:39.118Z,100813.97
2022-10-22T02:15:07.899Z,100815.72
2022-10-22T02:17:36.857Z,100813.09
2022-10-22T02:20:10.078Z,100816.59
2022-10-22T02:22:37.121Z,100819.25
2022-10-22T02:25:07.539Z,100810.47
2022-10-22T02:28:04.774Z,100811.31
2022-10-22T02:30:33.547Z,100816.59
2022-10-22T02:33:06.697Z,100810.41
2022-10-22T02:35:34.060Z,100807.75
2022-10-22T02:38:01.098Z,100814.81
2022-10-22T02:40:30.454Z,100810.41
2022-10-22T02:42:56.832Z,100816.59
2022-10-22T02:45:23.530Z,100820.16
2022-10-22T02:47:50.010Z,100818.41
2022-10-22T02:50:16.658Z,100823.72
2022-10-22T02:52:43.411Z,100816.72
2022-10-22T02:55:10.100Z,100823.78
2022-10-22T02:57:36.428Z,100820.25
2022-10-22T03:00:05.193Z,100824.69
2022-10-22T03:02:31.588Z,100826.47
2022-10-22T03:04:57.957Z,100825.53
2022-10-22T03:07:24.370Z,100829.06
2022-10-22T03:09:51.109Z,100829.94
2022-10-22T03:12:17.498Z,100829.09
2022-10-22T03:14:43.849Z,100829.09
2022-10-22T03:17:13.081Z,100822.97
2022-10-22T03:19:39.405Z,100829.16
2022-10-22T03:22:10.004Z,100827.38
2022-10-22T03:24:39.713Z,100828.25
2022-10-22T03:27:06.158Z,100837.09
2022-10-22T03:29:36.092Z,100826.56
2022-10-22T03:32:02.400Z,100831.84
2022-10-22T03:34:28.732Z,100838.94
2022-10-22T03:36:57.530Z,100834.56
2022-10-22T03:39:24.114Z,100839.88
2022-10-22T03:41:51.458Z,100844.25
2022-10-22T03:44:18.115Z,100838.09
2022-10-22T03:46:44.907Z,100844.25
2022-10-22T03:49:11.282Z,100846.94
2022-10-22T03:51:37.644Z,100848.72
2022-10-22T03:54:04.241Z,100855.75
2022-10-22T03:56:30.731Z,100849.59
2022-10-22T03:58:58.439Z,100843.47
2022-10-22T04:01:25.375Z,100848.75
2022-10-22T04:03:52.045Z,100850.53
2022-10-22T04:06:18.426Z,100859.38
2022-10-22T04:08:45.993Z,100848.81
2022-10-22T04:11:14.133Z,100855.00
2022-10-22T04:13:40.776Z,100860.31
2022-10-22T04:16:12.797Z,100860.31
2022-10-22T04:18:39.925Z,100856.81
2022-10-22T04:21:08.242Z,100859.50
2022-10-22T04:23:34.675Z,100856.00
2022-10-22T04:26:03.182Z,100860.38
2022-10-22T04:28:29.573Z,100868.31
2022-10-22T04:30:55.910Z,100871.81
2022-10-22T04:33:22.654Z,100870.03
2022-10-22T04:35:49.012Z,100871.81
2022-10-22T04:38:15.723Z,100870.91
2022-10-22T04:40:42.405Z,100869.13
2022-10-22T04:43:11.343Z,100869.16
2022-10-22T04:45:37.672Z,100875.34
2022-10-22T04:48:04.178Z,100883.25
2022-10-22T04:50:30.860Z,100874.44
2022-10-22T04:52:57.177Z,100875.28
2022-10-22T04:55:23.575Z,100870.88
2022-10-22T04:57:49.941Z,100884.09
2022-10-22T05:00:17.826Z,100877.03
2022-10-22T05:02:49.031Z,100882.34
2022-10-22T05:05:15.437Z,100889.41
2022-10-22T05:07:42.175Z,100883.25
2022-10-22T05:10:09.262Z,100883.25
2022-10-22T05:12:35.728Z,100887.66
2022-10-22T05:15:02.115Z,100883.25
2022-10-22T05:17:28.454Z,100888.53
2022-10-22T05:19:57.174Z,100879.72
2022-10-22T05:22:23.476Z,100881.53
2022-10-22T05:24:49.789Z,100880.66
2022-10-22T05:27:16.150Z,100883.34
2022-10-22T05:29:42.540Z,100900.09
2022-10-22T05:32:08.893Z,100888.66
2022-10-22T05:34:36.123Z,100890.41
2022-10-22T05:37:02.526Z,100893.06
2022-10-22T05:39:29.003Z,100900.13
2022-10-22T05:41:55.403Z,100898.34
2022-10-22T05:44:21.741Z,100905.44
2022-10-22T05:46:48.051Z,100896.63
2022-10-22T05:49:15.478Z,100904.56
2022-10-22T05:51:42.028Z,100901.91
2022-10-22T05:54:11.211Z,100911.63
2022-10-22T05:56:38.352Z,100917.81
2022-10-22T05:59:04.927Z,100914.28
2022-10-22T06:01:33.049Z,100913.38
2022-10-22T06:04:01.659Z,100918.66
2022-10-22T06:06:37.172Z,100919.53
2022-10-22T06:09:18.320Z,100923.09
2022-10-22T06:11:45.933Z,100919.56
2022-10-22T06:14:12.683Z,100927.50
2022-10-22T06:16:39.489Z,100932.78
2022-10-22T06:19:06.225Z,100940.72
2022-10-22T06:21:33.083Z,100933.69
2022-10-22T06:24:00.779Z,100931.91
2022-10-22T06:26:27.114Z,100934.56
2022-10-22T06:28:55.673Z,100947.75
2022-10-22T06:31:26.336Z,100939.81
2022-10-22T06:33:52.756Z,100949.50
2022-10-22T06:36:21.690Z,100960.03
2022-10-22T06:38:52.181Z,100954.75
2022-10-22T06:41:18.868Z,100960.91
2022-10-22T06:43:48.728Z,100964.41
2022-10-22T06:46:19.993Z,100967.94
2022-10-22T06:49:00.244Z,100975.81
2022-10-22T06:51:30.204Z,100981.06
2022-10-22T06:53:58.454Z,100979.28
2022-10-22T06:56:30.238Z,100982.78
2022-10-22T06:58:57.974Z,100987.19
2022-10-22T07:01:30.294Z,100991.59
2022-10-22T07:03:56.798Z,100992.44
2022-10-22T07:06:24.297Z,100997.75
2022-10-22T07:08:51.285Z,100995.06
2022-10-22T07:11:20.704Z,101000.31
2022-10-22T07:13:47.752Z,101007.31
2022-10-22T07:16:14.545Z,101004.69
2022-10-22T07:18:41.908Z,101007.28
2022-10-22T07:21:09.508Z,101006.41
2022-10-22T07:23:36.155Z,101009.00
2022-10-22T07:26:02.921Z,101016.94
2022-10-22T07:28:30.527Z,101023.06
2022-10-22T07:30:56.883Z,101018.66
2022-10-22T07:33:23.194Z,101020.44
2022-10-22T07:35:49.536Z,101026.56
2022-10-22T07:38:15.851Z,101028.31
2022-10-22T07:40:42.184Z,101033.56
2022-10-22T07:43:08.547Z,101037.00
2022-10-22T07:45:34.977Z,101034.31
2022-10-22T07:48:02.202Z,101049.25
2022-10-22T07:50:28.545Z,101038.56
2022-10-22T07:52:57.435Z,101037.59
2022-10-22T07:55:27.859Z,101043.69
2022-10-22T07:57:54.308Z,101046.25
2022-10-22T08:00:23.221Z,101056.75
2022-10-22T08:02:52.048Z,101065.47
2022-10-22T08:05:18.469Z,101069.81
2022-10-22T08:07:44.962Z,101066.25
2022-10-22T08:10:12.406Z,101071.53
2022-10-22T08:12:39.677Z,101074.22
2022-10-22T08:15:06.962Z,101074.19
2022-10-22T08:17:33.334Z,101089.25
2022-10-22T08:19:59.652Z,101089.28
2022-10-22T08:22:25.974Z,101081.38
2022-10-22T08:24:59.057Z,101090.22
2022-10-22T08:27:25.422Z,101093.75
2022-10-22T08:29:51.845Z,101091.06
2022-10-22T08:32:22.074Z,101100.78
2022-10-22T08:34:48.492Z,101102.56
2022-10-22T08:37:16.968Z,101098.13
2022-10-22T08:39:44.248Z,101106.94
2022-10-22T08:42:32.100Z,101109.53
2022-10-22T08:45:26.230Z,101104.19
2022-10-22T08:48:01.466Z,101113.06
2022-10-22T08:50:37.542Z,101113.03
2022-10-22T08:53:11.631Z,101101.53
2022-10-22T08:55:38.735Z,101115.66
2022-10-22T08:58:29.680Z,101119.19
2022-10-22T09:01:04.186Z,101123.53
2022-10-22T09:03:45.774Z,101115.63
2022-10-22T09:06:16.778Z,101127.97
2022-10-22T09:08:45.858Z,101132.38
2022-10-22T09:11:14.630Z,101132.38
2022-10-22T09:13:43.553Z,101133.22
2022-10-22T09:16:31.309Z,101145.63
2022-10-22T09:19:08.358Z,101140.28
2022-10-22T09:21:57.063Z,101155.22
2022-10-22T09:24:45.485Z,101151.66
2022-10-22T09:27:15.904Z,101154.25
2022-10-22T09:29:45.667Z,101154.25
2022-10-22T09:32:12.561Z,101165.69
2022-10-22T09:34:39.140Z,101169.16
2022-10-22T09:37:08.909Z,101158.53
2022-10-22T09:39:39.501Z,101157.59
2022-10-22T09:42:09.985Z,101165.47
2022-10-22T09:44:37.669Z,101165.38
2022-10-22T09:47:42.616Z,101174.16
2022-10-22T09:50:31.038Z,101178.50
2022-10-22T09:53:14.928Z,101176.28
2022-10-22T09:55:42.307Z,101181.00
2022-10-22T09:58:13.023Z,101194.16
2022-10-22T10:00:41.755Z,101191.53
2022-10-22T10:03:17.234Z,101188.81
2022-10-22T10:05:48.228Z,101195.16
2022-10-22T10:08:16.419Z,101189.75
2022-10-22T10:10:51.624Z,101196.50
2022-10-22T10:13:38.865Z,101196.72
2022-10-22T10:16:31.798Z,101200.50
2022-10-22T10:19:28.287Z,101198.03
2022-10-22T10:22:05.293Z,101217.22
2022-10-22T10:24:58.442Z,101226.75
2022-10-22T10:27:42.713Z,101223.63
2022-10-22T10:30:17.304Z,101233.66
2022-10-22T10:32:55.962Z,101230.47
2022-10-22T10:35:35.452Z,101226.31
2022-10-22T10:38:29.576Z,101235.31
2022-10-22T10:41:18.619Z,101237.13
2022-10-22T10:44:13.327Z,101240.56
2022-10-22T10:47:00.051Z,101237.19
2022-10-22T10:49:30.111Z,101250.03
2022-10-22T10:52:20.520Z,101255.03
2022-10-22T10:55:02.671Z,101249.69
2022-10-22T10:57:44.149Z,101255.13
2022-10-22T11:00:20.508Z,101257.06
2022-10-22T11:03:05.647Z,101261.84
2022-10-22T11:05:48.723Z,101252.13
2022-10-22T11:08:31.719Z,101260.84
2022-10-22T11:11:04.159Z,101255.28
2022-10-22T11:13:40.204Z,101264.66
2022-10-22T11:16:16.730Z,101254.84
2022-10-22T11:19:06.020Z,101250.00
2022-10-22T11:21:50.231Z,101258.28
2022-10-22T11:24:30.265Z,101256.94
2022-10-22T11:27:20.089Z,101258.44
2022-10-22T11:32:19.897Z,101266.78
2022-10-22T11:34:56.499Z,101265.78
2022-10-22T11:37:26.360Z,101261.75
2022-10-22T11:39:59.617Z,101265.72
2022-10-22T11:42:35.998Z,101265.84
2022-10-22T11:45:06.722Z,101270.69
2022-10-22T11:47:35.909Z,101279.44
2022-10-22T11:50:16.951Z,101278.41
2022-10-22T11:52:54.527Z,101275.50
2022-10-22T11:55:48.716Z,101267.38
2022-10-22T11:58:33.236Z,101286.13
2022-10-22T12:01:02.614Z,101281.91
2022-10-22T12:03:31.918Z,101274.22
2022-10-22T12:06:15.260Z,101282.03
2022-10-22T12:08:43.627Z,101275.72
2022-10-22T12:11:09.990Z,101277.34
2022-10-22T12:14:01.004Z,101281.28
2022-10-22T12:16:54.593Z,101290.50
2022-10-22T12:19:22.420Z,101287.28
2022-10-22T12:21:53.741Z,101284.94
2022-10-22T12:24:22.671Z,101299.50
2022-10-22T12:26:52.541Z,101291.59
2022-10-22T12:29:26.448Z,101282.63
2022-10-22T12:31:52.921Z,101293.28
2022-10-22T12:34:23.610Z,101295.78
2022-10-22T12:36:52.836Z,101298.03
2022-10-22T12:39:26.393Z,101295.84
2022-10-22T12:41:54.073Z,101294.47
2022-10-22T12:44:20.513Z,101295.75
2022-10-22T12:46:51.786Z,101294.53
2022-10-22T12:49:25.647Z,101294.16
2022-10-22T12:51:52.029Z,101294.59
2022-10-22T12:54:28.806Z,101297.31
2022-10-22T12:56:56.290Z,101287.06
2022-10-22T12:59:26.890Z,101296.50
2022-10-22T13:01:54.421Z,101297.75
2022-10-22T13:04:27.032Z,101284.66
2022-10-22T13:07:05.373Z,101293.56
2022-10-22T13:09:41.790Z,101292.56
2022-10-22T13:12:16.513Z,101287.16
2022-10-22T13:14:45.421Z,101288.00
2022-10-22T13:17:18.888Z,101293.44
2022-10-22T13:19:54.487Z,101293.56
2022-10-22T13:22:31.159Z,101287.63
2022-10-22T13:25:22.251Z,101294.97
2022-10-22T13:28:03.968Z,101294.13
2022-10-22T13:30:33.498Z,101303.97
2022-10-22T13:33:01.067Z,101305.94
2022-10-22T13:35:32.420Z,101296.13
2022-10-22T13:37:59.561Z,101293.56
2022-10-22T13:40:26.523Z,101293.31
2022-10-22T13:42:53.194Z,101294.91
2022-10-22T13:45:19.862Z,101305.47
2022-10-22T13:47:50.840Z,101301.75
2022-10-22T13:50:19.479Z,101296.50
2022-10-22T13:52:57.548Z,101294.75
2022-10-22T13:55:30.557Z,101305.38
2022-10-22T13:58:00.432Z,101301.94
2022-10-22T14:00:26.891Z,101308.22
2022-10-22T14:02:55.393Z,101296.72
2022-10-22T14:05:21.728Z,101309.31
2022-10-22T14:07:48.709Z,101315.56
2022-10-22T14:10:22.529Z,101311.28
2022-10-22T14:12:52.541Z,101306.19
2022-10-22T14:15:25.453Z,101317.03
2022-10-22T14:17:59.596Z,101311.84
2022-10-22T14:20:30.088Z,101307.56
2022-10-22T14:23:01.126Z,101314.88
2022-10-22T14:25:27.855Z,101323.03
2022-10-22T14:27:54.694Z,101323.16
2022-10-22T14:30:26.062Z,101325.94
2022-10-22T14:32:52.625Z,101323.28
2022-10-22T14:35:21.742Z,101324.06
2022-10-22T14:37:48.600Z,101331.16
2022-10-22T14:40:18.447Z,101345.34
2022-10-22T14:42:47.374Z,101344.63
2022-10-22T14:45:20.874Z,101343.84
2022-10-22T14:47:56.231Z,101343.09
2022-10-22T14:50:24.359Z,101347.53
2022-10-22T14:52:51.289Z,101344.03
2022-10-22T14:55:19.790Z,101341.44
2022-10-22T14:57:46.508Z,101350.28
2022-10-22T15:00:16.016Z,101348.56
2022-10-22T15:02:42.929Z,101353.03
2022-10-22T15:05:10.412Z,101354.94
2022-10-22T15:07:37.613Z,101348.78
2022-10-22T15:10:05.537Z,101347.06
2022-10-22T15:12:32.074Z,101351.50
2022-10-22T15:14:58.425Z,101351.56
2022-10-22T15:17:25.088Z,101356.94
2022-10-22T15:19:53.004Z,101356.97
2022-10-22T15:22:20.494Z,101351.66
2022-10-22T15:24:48.420Z,101358.00
2022-10-22T15:27:15.317Z,101361.56
2022-10-22T15:29:42.668Z,101360.75
2022-10-22T15:32:12.941Z,101356.41
2022-10-22T15:34:40.473Z,101348.44
2022-10-22T15:37:10.205Z,101364.47
2022-10-22T15:39:39.676Z,101371.72
2022-10-22T15:42:06.356Z,101375.41
2022-10-22T15:44:33.088Z,101376.41
2022-10-22T15:47:00.426Z,101377.34
2022-10-22T15:49:28.183Z,101377.41
2022-10-22T15:51:55.456Z,101372.13
2022-10-22T15:54:26.273Z,101367.75
2022-10-22T15:56:52.569Z,101364.25
2022-10-22T15:59:19.016Z,101370.50
2022-10-22T16:01:45.490Z,101361.72
2022-10-22T16:04:11.948Z,101368.88
2022-10-22T16:06:41.420Z,101359.16
2022-10-22T16:09:15.573Z,101364.53
2022-10-22T16:11:42.796Z,101378.78
2022-10-22T16:14:12.077Z,101373.53
2022-10-22T16:16:42.562Z,101381.56
2022-10-22T16:19:11.164Z,101375.44
2022-10-22T16:21:37.943Z,101378.19
2022-10-22T16:24:06.336Z,101376.47
2022-10-22T16:26:33.292Z,101386.28
2022-10-22T16:28:59.834Z,101391.66
2022-10-22T16:31:26.183Z,101390.91
2022-10-22T16:33:52.604Z,101383.03
2022-10-22T16:36:20.707Z,101395.50
2022-10-22T16:38:55.928Z,101400.88
2022-10-22T16:41:24.523Z,101399.22
2022-10-22T16:43:54.888Z,101392.19
2022-10-22T16:46:22.500Z,101394.94
2022-10-22T16:48:51.373Z,101384.44
2022-10-22T16:51:20.709Z,101400.38
2022-10-22T16:53:47.465Z,101407.56
2022-10-22T16:56:16.090Z,101402.28
2022-10-22T16:58:48.064Z,101401.47
2022-10-22T17:01:18.006Z,101403.31
2022-10-22T17:03:44.823Z,101390.97
2022-10-22T17:06:13.206Z,101393.66
2022-10-22T17:08:40.814Z,101396.44
2022-10-22T17:11:12.971Z,101398.25
2022-10-22T17:13:42.149Z,101400.13
2022-10-22T17:16:11.550Z,101399.28
2022-10-22T17:18:40.100Z,101410.88
2022-10-22T17:21:08.554Z,101415.38
2022-10-22T17:23:37.293Z,101418.09
2022-10-22T17:26:09.162Z,101418.16
2022-10-22T17:28:36.378Z,101430.63
2022-10-22T17:31:14.973Z,101428.03
2022-10-22T17:33:41.278Z,101427.22
2022-10-22T17:36:12.906Z,101438.75
2022-10-22T17:38:40.999Z,101427.31
2022-10-22T17:41:11.340Z,101433.53
2022-10-22T17:43:40.274Z,101440.63
2022-10-22T17:46:08.917Z,101435.34
2022-10-22T17:48:35.272Z,101435.38
2022-10-22T17:51:06.157Z,101435.41
2022-10-22T17:53:32.677Z,101439.00
2022-10-22T17:56:01.069Z,101443.44
2022-10-22T17:58:29.692Z,101439.06
2022-10-22T18:00:56.626Z,101421.41
2022-10-22T18:03:23.149Z,101439.09
2022-10-22T18:05:49.449Z,101437.31
2022-10-22T18:08:16.911Z,101442.66
2022-10-22T18:10:43.304Z,101449.75
2022-10-22T18:13:09.746Z,101448.88
2022-10-22T18:15:36.431Z,101446.22
2022-10-22T18:18:03.913Z,101448.00
2022-10-22T18:20:30.643Z,101447.16
2022-10-22T18:22:56.968Z,101452.47
2022-10-22T18:25:23.329Z,101452.47
2022-10-22T18:27:49.775Z,101453.38
2022-10-22T18:30:16.307Z,101460.44
2022-10-22T18:32:42.628Z,101454.25
2022-10-22T18:35:09.116Z,101456.91
2022-10-22T18:37:36.376Z,101457.81
2022-10-22T18:40:03.438Z,101452.50
2022-10-22T18:42:32.813Z,101456.06
2022-10-22T18:45:00.905Z,101453.41
2022-10-22T18:47:27.237Z,101459.59
2022-10-22T18:49:53.578Z,101452.56
2022-10-22T18:52:19.912Z,101452.53
2022-10-22T18:54:46.312Z,101465.78
2022-10-22T18:57:12.670Z,101456.06
2022-10-22T18:59:38.999Z,101469.31
2022-10-22T19:02:05.410Z,101456.06
2022-10-22T19:04:36.639Z,101452.53
2022-10-22T19:07:04.492Z,101448.16
2022-10-22T19:09:34.002Z,101443.72
2022-10-22T19:12:00.948Z,101449.03
2022-10-22T19:14:27.567Z,101438.47
2022-10-22T19:16:53.884Z,101434.03
2022-10-22T19:19:21.462Z,101427.88
2022-10-22T19:21:48.667Z,101432.28
2022-10-22T19:24:16.861Z,101439.38
2022-10-22T19:26:43.708Z,101436.72
2022-10-22T19:29:10.940Z,101435.84
2022-10-22T19:31:37.838Z,101434.94
2022-10-22T19:34:04.636Z,101431.44
2022-10-22T19:36:32.595Z,101426.16
2022-10-22T19:39:00.045Z,101430.53
2022-10-22T19:41:28.662Z,101437.59
2022-10-22T19:43:56.342Z,101436.72
2022-10-22T19:46:25.569Z,101448.19
2022-10-22T19:48:52.710Z,101438.50
2022-10-22T19:51:22.458Z,101442.88
2022-10-22T19:53:49.770Z,101437.63
2022-10-22T19:56:19.669Z,101435.84
2022-10-22T19:58:46.346Z,101442.88
2022-10-22T20:01:14.863Z,101444.66
2022-10-22T20:03:41.578Z,101441.13
2022-10-22T20:06:09.715Z,101449.94
2022-10-22T20:08:37.875Z,101436.75
2022-10-22T20:11:06.893Z,101441.13
2022-10-22T20:16:05.068Z,101438.50
2022-10-22T20:18:34.018Z,101442.00
2022-10-22T20:21:08.520Z,101446.41
2022-10-22T20:23:35.244Z,101444.66
2022-10-22T20:26:01.706Z,101441.09
2022-10-22T20:28:28.157Z,101450.84
2022-10-22T20:30:54.498Z,101458.75
2022-10-22T20:33:20.813Z,101456.13
2022-10-22T20:35:57.966Z,101453.47
2022-10-22T20:38:24.485Z,101458.75
2022-10-22T20:41:05.752Z,101448.16
2022-10-22T20:43:32.986Z,101452.59
2022-10-22T20:45:59.592Z,101451.72
2022-10-22T20:48:31.045Z,101458.75
2022-10-22T20:51:01.567Z,101447.28
2022-10-22T20:53:30.581Z,101457.88
2022-10-22T20:55:58.867Z,101457.84
2022-10-22T20:58:27.047Z,101455.22
2022-10-22T21:00:55.030Z,101449.03
2022-10-22T21:03:21.706Z,101447.25
2022-10-22T21:05:48.187Z,101453.44
2022-10-22T21:08:17.781Z,101444.63
2022-10-22T21:10:49.092Z,101445.50
2022-10-22T21:13:17.057Z,101451.69
2022-10-22T21:15:43.415Z,101439.34
2022-10-22T21:18:09.741Z,101442.88
2022-10-22T21:20:36.617Z,101450.78
2022-10-22T21:23:03.053Z,101451.66
2022-10-22T21:25:29.377Z,101458.72
2022-10-22T21:27:55.840Z,101464.00
2022-10-22T21:30:22.209Z,101471.94
2022-10-22T21:32:48.535Z,101461.34
2022-10-22T21:35:15.004Z,101456.09
2022-10-22T21:37:41.576Z,101454.34
2022-10-22T21:40:09.019Z,101459.59
2022-10-22T21:42:35.424Z,101460.50
2022-10-22T21:45:01.845Z,101449.00
2022-10-22T21:47:28.326Z,101452.53
2022-10-22T21:49:54.769Z,101469.28
2022-10-22T21:52:23.475Z,101473.69
2022-10-22T21:54:49.812Z,101465.75
2022-10-22T21:57:16.143Z,101464.00
2022-10-22T21:59:42.587Z,101460.47
2022-10-22T22:02:09.018Z,101457.81
2022-10-22T22:04:35.402Z,101458.72
2022-10-22T22:07:01.808Z,101455.19
2022-10-22T22:09:28.452Z,101448.13
2022-10-22T22:11:57.482Z,101448.97
2022-10-22T22:14:23.794Z,101446.34
2022-10-22T22:16:55.404Z,101451.63
2022-10-22T22:19:21.769Z,101446.34
2022-10-22T22:21:48.206Z,101442.81
2022-10-22T22:24:14.541Z,101446.31
2022-10-22T22:26:41.710Z,101441.03
2022-10-22T22:29:08.074Z,101437.53
2022-10-22T22:31:35.658Z,101437.50
2022-10-22T22:34:04.666Z,101438.38
2022-10-22T22:36:39.289Z,101438.41
2022-10-22T22:39:07.565Z,101432.25
2022-10-22T22:41:34.443Z,101441.91
2022-10-22T22:44:00.796Z,101434.00
2022-10-22T22:46:27.242Z,101435.75
2022-10-22T22:48:53.789Z,101425.16
2022-10-22T22:51:20.695Z,101434.00
2022-10-22T22:53:47.248Z,101425.19
2022-10-22T22:56:18.161Z,101427.81
2022-10-22T22:58:44.697Z,101418.13
2022-10-22T23:01:34.223Z,101423.44
2022-10-22T23:04:06.741Z,101421.66
2022-10-22T23:06:36.233Z,101419.00
2022-10-22T23:09:06.442Z,101419.00
2022-10-22T23:11:33.151Z,101416.34
2022-10-22T23:14:02.357Z,101413.72
2022-10-22T23:16:31.854Z,101409.28
2022-10-22T23:18:58.997Z,101410.19
2022-10-22T23:21:30.799Z,101412.81
2022-10-22T23:24:03.417Z,101410.19
2022-10-22T23:26:33.308Z,101403.13
2022-10-22T23:29:05.013Z,101408.41
2022-10-22T23:31:31.703Z,101406.63
2022-10-22T23:33:58.569Z,101403.13
2022-10-22T23:36:25.164Z,101405.75
2022-10-22T23:38:51.509Z,101400.47
2022-10-22T23:41:18.064Z,101407.53
2022-10-22T23:43:44.564Z,101410.16
2022-10-22T23:46:12.460Z,101403.09
2022-10-22T23:48:39.644Z,101392.53
2022-10-22T23:51:15.004Z,101383.72
2022-10-22T23:53:42.400Z,101382.84
2022-10-22T23:56:15.257Z,101376.69
2022-10-22T23:58:42.299Z,101375.78
